Time;durP1;ratioP1;P1;durP2;ratioP2;P2;SDS_P1;SDS_P2;PMS_P1;PMS_P2;Temp;Humidity;BMP_temperature;BMP_pressure;BME280_temperature;BME280_humidity;BME280_pressure;Samples;Min_cycle;Max_cycle;Signal;HPM_P1;HPM_P2
2022/09/08 00:01:25;;;;;;;0.50;0.40;;;;;;;19.80;100.00;95716.03;5132520;28;20903;-60
2022/09/08 00:03:54;;;;;;;0.50;0.30;;;;;;;19.85;100.00;95715.88;5132360;28;20439;-59
2022/09/08 00:06:22;;;;;;;0.50;0.50;;;;;;;19.84;100.00;95708.91;5132805;28;20423;-59
2022/09/08 00:08:51;;;;;;;4.30;0.43;;;;;;;19.70;100.00;95719.84;5132356;27;20427;-59
2022/09/08 00:11:24;;;;;;;0.50;0.47;;;;;;;19.76;100.00;95715.09;5132339;28;20418;-59
2022/09/08 00:13:52;;;;;;;0.40;0.20;;;;;;;19.76;100.00;95715.88;5132585;27;20568;-59
2022/09/08 00:16:22;;;;;;;0.50;0.40;;;;;;;19.74;100.00;95711.91;5132517;27;20415;-60
2022/09/08 00:18:51;;;;;;;0.50;0.30;;;;;;;19.68;100.00;95718.59;5132248;28;20466;-59
2022/09/08 00:21:21;;;;;;;0.60;0.50;;;;;;;19.65;100.00;95725.38;5132654;27;20758;-59
2022/09/08 00:23:49;;;;;;;0.40;0.33;;;;;;;19.53;100.00;95715.25;5132507;27;20431;-59
2022/09/08 00:26:20;;;;;;;0.43;0.30;;;;;;;19.64;100.00;95707.66;5132556;27;20807;-59
2022/09/08 00:28:49;;;;;;;0.40;0.30;;;;;;;19.60;100.00;95712.91;5132471;27;20437;-59
2022/09/08 00:31:18;;;;;;;0.60;0.40;;;;;;;19.55;100.00;95715.75;5132310;27;20469;-59
2022/09/08 00:33:48;;;;;;;1.13;0.37;;;;;;;19.38;100.00;95723.00;5132225;28;20462;-59
2022/09/08 00:36:18;;;;;;;9.57;1.40;;;;;;;19.11;100.00;95726.69;5133704;27;20886;-59
2022/09/08 00:38:51;;;;;;;0.40;0.30;;;;;;;19.40;100.00;95731.53;5136120;27;20795;-60
2022/09/08 00:41:20;;;;;;;3.43;0.30;;;;;;;19.41;100.00;95720.47;5136360;27;20430;-60
2022/09/08 00:43:58;;;;;;;0.40;0.20;;;;;;;19.24;100.00;95728.47;5136008;27;20809;-60
2022/09/08 00:46:30;;;;;;;0.50;0.30;;;;;;;18.57;100.00;95612.50;5136413;27;20410;-59
2022/09/08 00:49:05;;;;;;;0.50;0.40;;;;;;;19.41;100.00;95733.91;5135945;27;20422;-59
2022/09/08 00:51:35;;;;;;;0.60;0.30;;;;;;;18.99;100.00;95660.16;5135982;27;20422;-59
2022/09/08 00:54:03;;;;;;;0.60;0.40;;;;;;;19.38;100.00;95729.16;5135961;27;20422;-59
2022/09/08 00:56:33;;;;;;;0.50;0.50;;;;;;;19.32;100.00;95719.63;5135855;27;20419;-60
2022/09/08 00:59:03;;;;;;;0.60;0.30;;;;;;;19.19;100.00;95728.63;5135990;27;20445;-60
2022/09/08 01:01:33;;;;;;;0.47;0.30;;;;;;;19.07;100.00;95719.59;5135831;27;20430;-59
2022/09/08 01:04:05;;;;;;;1.33;1.33;;;;;;;19.19;100.00;95719.75;5135749;27;20431;-60
2022/09/08 01:12:46;;;;;;;1.17;0.50;;;;;;;18.39;100.00;95720.88;5135325;27;20426;-60
2022/09/08 01:15:18;;;;;;;0.50;0.30;;;;;;;18.45;100.00;95716.94;5135451;27;20435;-60
2022/09/08 01:17:48;;;;;;;0.50;0.40;;;;;;;18.78;100.00;95717.44;5134837;27;20430;-60
2022/09/08 01:20:21;;;;;;;0.40;0.30;;;;;;;18.81;100.00;95717.63;5134475;27;20973;-60
2022/09/08 01:23:17;;;;;;;0.57;0.40;;;;;;;18.90;100.00;95721.09;5135033;27;20430;-60
2022/09/08 01:26:06;;;;;;;0.80;0.57;;;;;;;18.28;100.00;95720.34;5134862;27;20438;-59
2022/09/08 01:28:40;;;;;;;0.70;0.53;;;;;;;18.21;100.00;95719.22;5134997;27;20434;-59
2022/09/08 01:31:09;;;;;;;0.40;0.30;;;;;;;18.31;100.00;95716.25;5134966;27;20971;-60
2022/09/08 01:33:39;;;;;;;0.50;0.33;;;;;;;18.13;100.00;95715.38;5134505;27;20530;-60
2022/09/08 01:36:09;;;;;;;0.50;0.40;;;;;;;18.56;100.00;95710.25;5134745;27;20927;-60
2022/09/08 01:38:38;;;;;;;0.57;0.40;;;;;;;18.13;100.00;95711.91;5134631;27;20435;-60
2022/09/08 01:41:07;;;;;;;0.67;0.60;;;;;;;18.00;100.00;95718.91;5134901;27;20438;-60
2022/09/08 01:43:37;;;;;;;0.47;0.30;;;;;;;18.26;100.00;95711.81;5134440;27;20430;-60
2022/09/08 01:46:05;;;;;;;0.70;0.40;;;;;;;18.63;100.00;95704.44;5134854;27;20428;-59
2022/09/08 01:48:34;;;;;;;0.50;0.40;;;;;;;18.64;100.00;95712.19;5134082;27;20449;-59
2022/09/08 01:51:06;;;;;;;0.40;0.30;;;;;;;18.61;100.00;95717.38;5134296;27;20458;-60
2022/09/08 01:53:36;;;;;;;0.50;0.30;;;;;;;18.71;100.00;95712.53;5134634;27;20422;-60
2022/09/08 01:56:05;;;;;;;0.50;0.30;;;;;;;18.76;100.00;95715.06;5134330;27;20433;-60
2022/09/08 01:58:34;;;;;;;0.47;0.33;;;;;;;18.74;100.00;95703.84;5134256;27;20422;-60
2022/09/08 02:01:04;;;;;;;1.17;0.83;;;;;;;18.80;100.00;95709.84;5134258;27;20414;-60
2022/09/08 02:03:33;;;;;;;1.37;0.30;;;;;;;18.79;100.00;95714.47;5134357;27;20438;-60
2022/09/08 02:06:02;;;;;;;0.87;0.87;;;;;;;18.80;100.00;95710.66;5133988;27;20422;-60
2022/09/08 02:08:31;;;;;;;0.40;0.40;;;;;;;18.78;100.00;95712.88;5133984;27;20426;-60
2022/09/08 02:11:01;;;;;;;0.50;0.40;;;;;;;18.65;100.00;95705.69;5134037;27;20462;-61
2022/09/08 02:13:30;;;;;;;0.67;0.60;;;;;;;18.66;100.00;95709.19;5134133;27;20434;-61
2022/09/08 02:16:00;;;;;;;0.47;0.33;;;;;;;18.63;100.00;95705.22;5133877;27;20422;-60
2022/09/08 02:18:32;;;;;;;2.07;0.53;;;;;;;18.59;100.00;95700.78;5134020;27;20828;-60
2022/09/08 02:21:06;;;;;;;1.10;1.10;;;;;;;18.69;100.00;95700.50;5133906;27;20445;-60
2022/09/08 02:23:34;;;;;;;0.40;0.30;;;;;;;18.29;100.00;95651.38;5133890;27;20486;-60
2022/09/08 02:26:04;;;;;;;0.50;0.30;;;;;;;17.94;100.00;95625.47;5133979;27;20434;-60
2022/09/08 02:28:32;;;;;;;0.60;0.50;;;;;;;18.63;100.00;95710.59;5133664;27;20431;-60
2022/09/08 02:31:03;;;;;;;0.50;0.40;;;;;;;18.34;100.00;95660.06;5133889;27;20469;-60
2022/09/08 02:33:33;;;;;;;0.80;0.67;;;;;;;18.68;100.00;95705.09;5133610;27;20438;-59
2022/09/08 02:36:02;;;;;;;0.50;0.43;;;;;;;18.42;100.00;95706.84;5133672;27;20479;-60
2022/09/08 02:38:31;;;;;;;0.50;0.40;;;;;;;18.58;100.00;95704.56;5133505;27;20426;-60
2022/09/08 02:41:00;;;;;;;0.57;0.40;;;;;;;18.65;100.00;95707.59;5133722;27;20453;-62
2022/09/08 02:43:29;;;;;;;0.70;0.57;;;;;;;18.58;100.00;95708.03;5133436;27;20438;-60
2022/09/08 02:46:04;;;;;;;1.07;0.40;;;;;;;18.46;100.00;95707.81;5133467;27;20418;-61
2022/09/08 02:48:34;;;;;;;0.80;0.50;;;;;;;18.22;100.00;95704.69;5133308;27;20426;-60
2022/09/08 02:51:04;;;;;;;0.70;0.50;;;;;;;18.29;100.00;95694.31;5133283;27;20469;-60
2022/09/08 02:53:33;;;;;;;0.50;0.30;;;;;;;18.19;100.00;95678.47;5133475;27;20430;-60
2022/09/08 02:56:02;;;;;;;0.50;0.50;;;;;;;18.58;100.00;95691.94;5133025;27;20467;-60
2022/09/08 02:58:34;;;;;;;0.40;0.30;;;;;;;18.63;100.00;95689.13;5132461;27;20817;-60
2022/09/08 03:01:04;;;;;;;0.60;0.30;;;;;;;18.63;100.00;95685.63;5133140;27;20422;-60
2022/09/08 03:03:34;;;;;;;0.50;0.50;;;;;;;18.57;100.00;95684.97;5133048;27;20890;-60
2022/09/08 03:06:04;;;;;;;0.60;0.40;;;;;;;18.62;100.00;95692.13;5133495;27;20427;-60
2022/09/08 03:08:33;;;;;;;0.50;0.40;;;;;;;18.71;100.00;95701.00;5133377;27;20411;-60
2022/09/08 03:11:01;;;;;;;0.40;0.30;;;;;;;18.57;100.00;95698.41;5132871;27;20491;-60
2022/09/08 03:13:30;;;;;;;0.50;0.30;;;;;;;18.21;100.00;95644.09;5133205;27;20426;-60
2022/09/08 03:15:59;;;;;;;0.70;0.33;;;;;;;18.55;100.00;95689.06;5132913;27;20518;-60
2022/09/08 03:18:27;;;;;;;0.50;0.40;;;;;;;18.43;100.00;95697.69;5132834;27;20452;-59
2022/09/08 03:21:01;;;;;;;0.40;0.30;;;;;;;18.39;100.00;95710.91;5133140;27;20422;-59
2022/09/08 03:23:31;;;;;;;1.10;0.30;;;;;;;18.56;100.00;95707.56;5132801;27;20422;-59
2022/09/08 03:26:02;;;;;;;0.50;0.40;;;;;;;18.40;100.00;95700.97;5132546;27;20479;-59
2022/09/08 03:28:31;;;;;;;1.03;0.93;;;;;;;17.30;100.00;95721.34;5132622;27;20434;-59
2022/09/08 03:30:59;;;;;;;1.27;1.17;;;;;;;17.00;100.00;95716.63;5132641;27;20966;-60
2022/09/08 03:33:28;;;;;;;1.83;1.47;;;;;;;16.18;100.00;95667.63;5132290;27;20962;-59
2022/09/08 03:36:02;;;;;;;0.83;0.83;;;;;;;16.98;100.00;95730.31;5132637;27;20899;-59
2022/09/08 03:38:31;;;;;;;0.97;0.97;;;;;;;16.79;100.00;95731.50;5132848;27;20915;-59
2022/09/08 03:41:00;;;;;;;0.40;0.30;;;;;;;16.92;100.00;95725.34;5132887;27;20414;-59
2022/09/08 03:43:28;;;;;;;0.40;0.30;;;;;;;17.41;100.00;95722.69;5132916;27;20497;-59
2022/09/08 03:45:57;;;;;;;0.40;0.30;;;;;;;17.45;100.00;95726.34;5132682;27;20418;-59
2022/09/08 03:48:25;;;;;;;0.57;0.50;;;;;;;17.40;100.00;95725.69;5132786;28;20829;-59
2022/09/08 03:50:53;;;;;;;0.50;0.40;;;;;;;17.84;100.00;95727.63;5132431;27;20423;-59
2022/09/08 03:53:23;;;;;;;0.40;0.30;;;;;;;17.91;100.00;95736.06;5132431;28;20445;-59
2022/09/08 03:55:51;;;;;;;0.50;0.50;;;;;;;17.69;100.00;95726.09;5132741;27;20435;-59
2022/09/08 03:58:20;;;;;;;0.50;0.33;;;;;;;17.72;100.00;95737.03;5132792;27;20431;-59
2022/09/08 04:00:49;;;;;;;0.40;0.30;;;;;;;17.65;100.00;95733.97;5132478;28;20419;-60
2022/09/08 04:03:18;;;;;;;2.20;0.60;;;;;;;17.80;100.00;95734.69;5132744;27;20423;-59
2022/09/08 04:05:46;;;;;;;0.63;0.53;;;;;;;17.62;100.00;95729.22;5132395;27;20911;-60
2022/09/08 04:08:15;;;;;;;0.40;0.20;;;;;;;17.61;100.00;95743.69;5132286;27;20965;-59
2022/09/08 04:10:44;;;;;;;0.50;0.30;;;;;;;17.67;100.00;95753.22;5134380;27;20504;-59
2022/09/08 04:13:13;;;;;;;0.50;0.40;;;;;;;17.67;100.00;95747.06;5136670;27;20466;-58
2022/09/08 04:15:42;;;;;;;3.27;0.40;;;;;;;17.63;100.00;95748.78;5136500;27;20414;-59
2022/09/08 04:18:10;;;;;;;0.70;0.50;;;;;;;17.56;100.00;95751.84;5136359;27;20430;-59
2022/09/08 04:20:39;;;;;;;0.50;0.30;;;;;;;17.51;100.00;95753.81;5136711;27;20414;-59
2022/09/08 04:23:08;;;;;;;0.40;0.30;;;;;;;17.28;100.00;95747.63;5136236;27;20425;-58
2022/09/08 04:25:37;;;;;;;0.63;0.40;;;;;;;17.02;100.00;95744.69;5136470;27;20441;-59
2022/09/08 04:28:07;;;;;;;0.40;0.30;;;;;;;17.32;100.00;95753.97;5135957;27;20426;-58
2022/09/08 04:30:39;;;;;;;0.60;0.37;;;;;;;17.35;100.00;95756.06;5136409;27;20422;-59
2022/09/08 04:33:08;;;;;;;0.40;0.30;;;;;;;17.47;100.00;95755.53;5135970;27;20466;-58
2022/09/08 04:35:38;;;;;;;0.40;0.30;;;;;;;17.48;100.00;95743.72;5135843;27;20477;-58
2022/09/08 04:38:06;;;;;;;0.70;0.60;;;;;;;17.57;100.00;95745.41;5135892;27;20433;-59
2022/09/08 04:40:34;;;;;;;0.60;0.40;;;;;;;17.79;100.00;95750.00;5135968;27;20427;-60
2022/09/08 04:43:03;;;;;;;0.60;0.60;;;;;;;17.99;100.00;95759.44;5136050;27;20884;-59
2022/09/08 04:45:33;;;;;;;0.60;0.60;;;;;;;18.19;100.00;95759.75;5136171;27;20414;-60
2022/09/08 04:48:01;;;;;;;0.57;0.50;;;;;;;18.32;100.00;95755.41;5135695;27;20433;-59
2022/09/08 04:50:30;;;;;;;1.27;1.27;;;;;;;18.20;100.00;95763.22;5136084;27;20422;-60
2022/09/08 04:52:58;;;;;;;0.50;0.50;;;;;;;18.37;100.00;95747.22;5135960;27;20861;-60
2022/09/08 04:55:26;;;;;;;0.40;0.30;;;;;;;18.39;100.00;95747.72;5135664;27;20414;-59
2022/09/08 04:57:55;;;;;;;0.50;0.40;;;;;;;18.05;100.00;95759.03;5135728;27;20411;-59
2022/09/08 05:00:23;;;;;;;0.47;0.40;;;;;;;18.29;100.00;95756.03;5135854;27;20419;-59
2022/09/08 05:02:52;;;;;;;0.60;0.60;;;;;;;17.69;100.00;95766.31;5135864;27;20903;-59
2022/09/08 05:05:21;;;;;;;2.17;0.73;;;;;;;17.60;100.00;95752.06;5135343;27;20438;-59
2022/09/08 05:07:50;;;;;;;2.03;0.70;;;;;;;18.08;100.00;95760.31;5135399;27;20432;-59
2022/09/08 05:10:18;;;;;;;0.50;0.50;;;;;;;18.05;100.00;95726.84;5135603;27;20418;-59
2022/09/08 05:12:47;;;;;;;1.73;0.30;;;;;;;18.54;100.00;95746.56;5135369;27;20469;-59
2022/09/08 05:15:15;;;;;;;0.93;0.93;;;;;;;18.81;100.00;95755.22;5135545;27;20427;-60
2022/09/08 05:17:43;;;;;;;0.77;0.77;;;;;;;18.74;100.00;95749.50;5135603;27;20797;-59
2022/09/08 05:20:13;;;;;;;0.50;0.30;;;;;;;18.81;100.00;95757.09;5135147;27;20933;-60
2022/09/08 05:22:41;;;;;;;1.10;1.10;;;;;;;19.16;100.00;95760.69;5134245;27;20437;-60
2022/09/08 05:25:12;;;;;;;5.30;0.83;;;;;;;19.24;100.00;95755.34;5135298;27;20427;-60
2022/09/08 05:27:41;;;;;;;0.60;0.50;;;;;;;19.39;100.00;95757.63;5134487;27;20939;-59
2022/09/08 05:30:11;;;;;;;0.60;0.40;;;;;;;19.46;100.00;95757.16;5133571;27;20418;-60
2022/09/08 05:32:39;;;;;;;0.57;0.40;;;;;;;19.03;100.00;95757.81;5132655;27;20462;-60
2022/09/08 05:35:08;;;;;;;0.40;0.30;;;;;;;18.95;100.00;95761.25;5132614;27;20465;-60
2022/09/08 05:37:38;;;;;;;0.40;0.30;;;;;;;19.18;100.00;95769.22;5132708;27;20435;-60
2022/09/08 05:40:07;;;;;;;0.87;0.47;;;;;;;19.62;100.00;95760.97;5133770;27;20418;-60
2022/09/08 05:42:36;;;;;;;0.60;0.40;;;;;;;19.75;100.00;95756.56;5133846;27;20843;-60
2022/09/08 05:45:11;;;;;;;0.57;0.50;;;;;;;19.81;100.00;95750.69;5134140;27;20430;-61
2022/09/08 05:47:44;;;;;;;0.87;0.87;;;;;;;18.64;100.00;95555.69;5134580;27;20458;-60
2022/09/08 05:50:12;;;;;;;0.40;0.30;;;;;;;20.10;100.00;95741.97;5134915;27;20430;-60
2022/09/08 05:52:42;;;;;;;0.50;0.30;;;;;;;19.95;100.00;95745.94;5134503;27;20458;-60
2022/09/08 05:55:10;;;;;;;1.00;1.00;;;;;;;19.40;100.00;95745.78;5134541;27;20553;-61
2022/09/08 05:57:39;;;;;;;0.80;0.80;;;;;;;19.67;100.00;95727.75;5134498;27;20415;-62
2022/09/08 06:00:09;;;;;;;0.50;0.47;;;;;;;20.23;100.00;95736.44;5134846;27;20900;-60
2022/09/08 06:02:37;;;;;;;1.00;0.90;;;;;;;21.00;100.00;95740.75;5134455;27;20415;-59
2022/09/08 06:05:06;;;;;;;0.40;0.30;;;;;;;21.70;100.00;95733.88;5134579;27;20434;-59
2022/09/08 06:20:12;;;;;;;0.50;0.40;;;;;;;22.95;99.19;95730.56;5150388;27;20980;-57
2022/09/08 06:22:41;;;;;;;0.40;0.30;;;;;;;23.34;93.15;95734.53;5150615;27;20445;-57
2022/09/08 06:25:09;;;;;;;0.50;0.37;;;;;;;23.65;92.34;95736.66;5150641;27;20449;-59
2022/09/08 06:27:49;;;;;;;1.00;0.30;;;;;;;24.21;87.49;95732.09;5150141;27;20420;-58
2022/09/08 06:30:19;;;;;;;2.93;0.70;;;;;;;24.43;81.20;95731.53;5150381;27;20961;-58
2022/09/08 06:32:51;;;;;;;0.50;0.50;;;;;;;23.25;87.22;95739.28;5150190;27;20425;-57
2022/09/08 06:35:24;;;;;;;1.00;0.90;;;;;;;23.07;86.91;95743.31;5150094;27;20430;-57
2022/09/08 06:37:57;;;;;;;1.67;1.57;;;;;;;23.53;85.35;95737.44;5150380;27;20426;-56
2022/09/08 06:40:29;;;;;;;0.60;0.60;;;;;;;24.05;79.94;95733.91;5150287;27;20433;-56
2022/09/08 06:43:05;;;;;;;0.47;0.33;;;;;;;24.61;79.69;95722.72;5149928;27;20429;-57
2022/09/08 06:45:37;;;;;;;1.13;1.13;;;;;;;24.95;73.19;95723.97;5149727;27;20946;-57
2022/09/08 06:48:16;;;;;;;0.73;0.70;;;;;;;24.49;72.88;95730.13;5149979;27;20466;-58
2022/09/08 06:50:59;;;;;;;1.80;0.30;;;;;;;25.50;70.79;95722.97;5150031;27;20448;-58
2022/09/08 06:53:34;;;;;;;0.60;0.40;;;;;;;25.70;69.00;95718.38;5150101;27;20426;-58
2022/09/08 06:56:18;;;;;;;5.70;0.70;;;;;;;25.62;68.64;95720.16;5149254;27;20432;-59
2022/09/08 06:59:27;;;;;;;1.17;1.17;;;;;;;25.72;66.92;95733.16;5149327;27;20969;-59
2022/09/08 07:02:05;;;;;;;0.70;0.70;;;;;;;26.14;62.65;95722.41;5149969;27;20795;-60
2022/09/08 07:04:44;;;;;;;0.87;0.87;;;;;;;25.95;62.92;95735.97;5149800;27;20447;-61
2022/09/08 07:07:28;;;;;;;0.50;0.40;;;;;;;25.88;65.62;95736.59;5149861;27;20429;-62
2022/09/08 07:10:03;;;;;;;1.73;1.00;;;;;;;26.36;64.05;95737.22;5149606;27;20473;-61
2022/09/08 07:12:42;;;;;;;0.60;0.30;;;;;;;26.88;65.82;95740.13;5149781;27;20428;-60
2022/09/08 07:15:26;;;;;;;0.70;0.50;;;;;;;25.75;65.20;95740.56;5149299;27;20429;-61
2022/09/08 07:18:01;;;;;;;0.60;0.60;;;;;;;25.75;66.50;95742.53;5148955;27;20425;-61
2022/09/08 07:20:29;;;;;;;0.90;0.70;;;;;;;25.12;68.84;95703.84;5139541;27;20429;-61
2022/09/08 07:23:05;;;;;;;0.53;0.50;;;;;;;25.98;69.94;95743.41;5135538;27;20415;-62
2022/09/08 07:25:37;;;;;;;1.07;1.00;;;;;;;24.87;73.89;95738.50;5135336;27;20415;-62
2022/09/08 07:28:09;;;;;;;0.43;0.43;;;;;;;25.02;74.29;95732.28;5135119;27;20426;-62
2022/09/08 07:30:39;;;;;;;0.50;0.43;;;;;;;26.48;65.82;95729.69;5135541;27;20423;-62
2022/09/08 07:33:16;;;;;;;0.97;0.83;;;;;;;26.52;62.82;95727.00;5135394;27;20453;-61
2022/09/08 07:35:54;;;;;;;1.43;1.43;;;;;;;26.23;63.04;95739.28;5135213;27;20418;-61
2022/09/08 07:38:35;;;;;;;2.37;1.40;;;;;;;26.02;66.19;95740.75;5135392;27;20932;-61
2022/09/08 07:41:06;;;;;;;0.47;0.40;;;;;;;26.46;66.85;95729.22;5135123;27;20923;-61
2022/09/08 07:43:35;;;;;;;0.70;0.60;;;;;;;27.46;61.91;95729.81;5135237;27;20423;-60
2022/09/08 07:46:32;;;;;;;0.80;0.80;;;;;;;26.46;63.73;95721.06;5135079;27;20441;-60
2022/09/08 07:49:09;;;;;;;0.50;0.50;;;;;;;27.54;62.24;95726.03;5135023;27;20474;-60
2022/09/08 07:51:47;;;;;;;2.10;1.40;;;;;;;27.66;58.02;95733.19;5134846;27;20430;-60
2022/09/08 07:54:30;;;;;;;0.47;0.40;;;;;;;28.38;54.81;95714.66;5134586;27;20423;-60
2022/09/08 07:57:05;;;;;;;0.53;0.50;;;;;;;29.00;52.25;95673.94;5134558;27;20432;-60
2022/09/08 08:00:00;;;;;;;0.40;0.37;;;;;;;29.39;52.35;95732.41;5134395;27;20494;-60
2022/09/08 08:03:05;;;;;;;1.97;0.77;;;;;;;28.30;51.42;95729.38;5134470;27;20429;-60
2022/09/08 08:05:42;;;;;;;0.60;0.60;;;;;;;28.24;55.56;95736.31;5117108;27;20452;-60
2022/09/08 08:08:17;;;;;;;0.50;0.40;;;;;;;28.93;52.09;95730.06;5134792;27;20446;-60
2022/09/08 08:10:56;;;;;;;1.07;1.00;;;;;;;28.59;52.13;95731.25;5134465;27;20436;-59
2022/09/08 08:13:37;;;;;;;1.90;1.80;;;;;;;29.39;50.04;95724.19;5134650;27;20439;-60
2022/09/08 08:16:10;;;;;;;0.50;0.50;;;;;;;29.82;47.29;95728.81;5134624;27;20777;-60
2022/09/08 08:18:53;;;;;;;0.87;0.60;;;;;;;29.88;46.29;95724.53;5134139;27;20476;-60
2022/09/08 08:21:25;;;;;;;0.50;0.50;;;;;;;29.50;46.97;95725.03;5134526;27;20432;-59
2022/09/08 08:24:24;;;;;;;0.60;0.60;;;;;;;30.64;46.02;95724.44;5134526;27;20912;-59
2022/09/08 08:27:00;;;;;;;0.70;0.70;;;;;;;30.84;43.94;95733.84;5128032;27;20443;-59
2022/09/08 08:29:56;;;;;;;0.60;0.40;;;;;;;30.74;43.63;95721.72;5134410;27;20550;-60
2022/09/08 08:32:29;;;;;;;0.50;0.50;;;;;;;31.89;40.73;95702.13;5132907;27;20447;-59
2022/09/08 08:35:14;;;;;;;0.30;0.20;;;;;;;32.54;39.05;95713.25;5133964;27;20427;-60
2022/09/08 08:37:46;;;;;;;0.50;0.50;;;;;;;31.86;38.64;95711.91;5133988;27;20531;-59
2022/09/08 08:40:42;;;;;;;0.60;0.57;;;;;;;32.41;39.12;95703.88;5133891;27;20784;-60
2022/09/08 08:43:30;;;;;;;0.50;0.47;;;;;;;32.34;40.75;95695.69;5126198;27;20435;-59
2022/09/08 08:58:06;;;;;;;0.60;0.60;;;;;;;30.60;42.90;95691.59;5129856;27;20559;-60
2022/09/08 09:01:05;;;;;;;1.17;1.17;;;;;;;30.41;45.16;95691.94;5129703;27;20447;-59
2022/09/08 09:03:53;;;;;;;0.50;0.50;;;;;;;31.27;43.05;95688.13;5129696;28;20447;-58
2022/09/08 09:06:38;;;;;;;1.10;1.10;;;;;;;31.82;41.81;95677.47;5129538;27;20473;-58
2022/09/08 09:09:33;;;;;;;0.60;0.60;;;;;;;33.31;37.52;95671.91;5129799;27;20840;-59
2022/09/08 09:12:13;;;;;;;0.60;0.47;;;;;;;32.66;40.18;95667.31;5129376;27;20967;-58
2022/09/08 09:15:16;;;;;;;0.60;0.60;;;;;;;32.58;40.04;95664.63;5129746;27;20445;-58
2022/09/08 09:18:49;;;;;;;1.43;1.33;;;;;;;31.15;43.20;95664.66;5128986;28;20448;-58
2022/09/08 09:21:39;;;;;;;0.80;0.80;;;;;;;32.60;40.40;95647.72;5121099;28;20445;-59
2022/09/08 09:24:22;;;;;;;0.43;0.40;;;;;;;33.36;39.91;95649.47;5129204;28;20468;-58
2022/09/08 09:26:53;;;;;;;0.80;0.80;;;;;;;33.54;39.21;95648.13;5129122;27;20463;-56
2022/09/08 09:29:24;;;;;;;0.60;0.60;;;;;;;33.13;37.55;95652.84;5129514;27;20426;-58
2022/09/08 09:32:42;;;;;;;1.30;1.23;;;;;;;32.97;37.84;95649.78;5129387;28;20437;-57
2022/09/08 09:35:32;;;;;;;0.63;0.63;;;;;;;33.70;36.42;95640.09;5129332;27;20465;-57
2022/09/08 09:38:32;;;;;;;0.67;0.50;;;;;;;33.53;39.91;95630.06;5129309;27;20445;-57
2022/09/08 09:41:20;;;;;;;0.60;0.60;;;;;;;34.17;36.10;95623.84;5112186;28;20441;-57
2022/09/08 09:44:10;;;;;;;0.47;0.47;;;;;;;34.07;36.45;95627.50;5129234;28;20501;-57
2022/09/08 09:47:14;;;;;;;0.80;0.80;;;;;;;34.35;35.09;95625.16;5128599;28;20466;-57
2022/09/08 09:50:31;;;;;;;0.60;0.60;;;;;;;33.97;36.05;95620.16;5122594;27;20445;-58
2022/09/08 09:53:13;;;;;;;0.60;0.60;;;;;;;33.74;37.48;95615.31;5045345;28;20430;-58
2022/09/08 09:56:48;;;;;;;0.83;0.70;;;;;;;32.92;37.53;95617.28;5128324;27;20505;-58
2022/09/08 09:59:57;;;;;;;0.73;0.70;;;;;;;33.79;36.01;95606.63;5114601;28;20442;-58
2022/09/08 10:02:59;;;;;;;0.87;0.87;;;;;;;32.40;37.93;95603.56;5114827;28;20432;-57
2022/09/08 10:05:52;;;;;;;0.57;0.47;;;;;;;32.65;38.25;95600.63;5108937;28;20445;-58
2022/09/08 10:08:50;;;;;;;1.63;1.53;;;;;;;33.55;37.03;95594.72;5098043;28;20450;-58
2022/09/08 10:11:55;;;;;;;0.53;0.53;;;;;;;34.43;36.30;95598.31;5114938;28;20961;-57
2022/09/08 10:15:00;;;;;;;0.67;0.60;;;;;;;35.20;36.43;95590.78;5114550;28;20518;-57
2022/09/08 10:18:25;;;;;;;0.40;0.40;;;;;;;34.93;36.06;95592.81;5090311;28;20436;-58
2022/09/08 10:21:33;;;;;;;1.13;1.13;;;;;;;34.63;36.56;95579.16;5066958;28;20448;-57
2022/09/08 10:24:48;;;;;;;1.80;0.40;;;;;;;35.32;36.02;95581.88;5114591;28;20449;-57
2022/09/08 10:27:40;;;;;;;0.60;0.60;;;;;;;34.35;36.26;95572.06;5031067;28;20235;-57
2022/09/08 10:30:42;;;;;;;0.90;0.90;;;;;;;34.58;38.10;95544.59;5114291;28;20524;-57
2022/09/08 10:33:35;;;;;;;0.73;0.73;;;;;;;34.10;36.39;95560.66;5110321;28;20198;-57
2022/09/08 10:36:08;;;;;;;0.60;0.50;;;;;;;35.62;34.43;95561.66;5114108;28;20266;-56
2022/09/08 10:39:19;;;;;;;0.40;0.30;;;;;;;36.22;33.33;95549.31;5114141;28;20190;-57
2022/09/08 10:42:23;;;;;;;0.60;0.60;;;;;;;34.87;36.27;95542.13;5074980;28;20199;-57
2022/09/08 10:45:24;;;;;;;1.13;1.00;;;;;;;34.51;37.87;95535.66;5107671;28;20201;-57
2022/09/08 10:48:34;;;;;;;0.40;0.30;;;;;;;34.79;35.69;95529.69;5030845;28;20232;-57
2022/09/08 10:51:41;;;;;;;1.17;0.70;;;;;;;34.78;35.89;95528.94;5098594;28;20205;-56
2022/09/08 10:54:41;;;;;;;0.50;0.40;;;;;;;35.62;34.91;95521.03;5093719;28;20197;-56
2022/09/08 10:57:21;;;;;;;1.40;1.23;;;;;;;33.64;36.11;95520.78;5038049;28;20237;-56
2022/09/08 11:00:05;;;;;;;0.77;0.57;;;;;;;34.20;34.68;95513.72;5114102;28;20554;-56
2022/09/08 11:02:36;;;;;;;0.80;0.50;;;;;;;34.22;35.09;95511.34;5113866;28;20199;-56
2022/09/08 11:05:29;;;;;;;0.63;0.47;;;;;;;35.60;33.89;95500.59;5113851;28;20267;-57
2022/09/08 11:08:54;;;;;;;0.90;0.83;;;;;;;34.38;34.68;95503.19;5113353;28;20226;-56
2022/09/08 11:12:10;;;;;;;1.23;0.90;;;;;;;34.62;33.92;95503.22;5113777;28;20185;-57
2022/09/08 11:15:18;;;;;;;0.53;0.53;;;;;;;35.49;32.33;95484.28;5113393;28;20197;-57
2022/09/08 11:17:50;;;;;;;1.00;1.00;;;;;;;34.03;33.92;95495.47;5113382;28;20658;-57
2022/09/08 11:20:28;;;;;;;1.80;0.90;;;;;;;34.09;33.47;95490.31;5113807;28;20193;-57
2022/09/08 11:23:24;;;;;;;0.40;0.40;;;;;;;34.63;34.55;95477.28;5113296;28;20190;-56
2022/09/08 11:26:05;;;;;;;0.50;0.50;;;;;;;34.88;33.15;95420.53;5113193;28;20198;-57
2022/09/08 11:28:45;;;;;;;11.00;0.53;;;;;;;34.23;34.22;95484.59;5113599;28;20198;-57
2022/09/08 11:31:30;;;;;;;0.60;0.60;;;;;;;34.72;32.35;95478.28;5113509;28;20198;-58
2022/09/08 11:34:17;;;;;;;0.40;0.40;;;;;;;35.54;32.90;95480.28;5113094;28;20244;-57
2022/09/08 11:37:36;;;;;;;0.40;0.40;;;;;;;35.59;31.30;95474.25;5113020;28;20266;-57
2022/09/08 11:40:31;;;;;;;1.67;0.83;;;;;;;36.00;31.20;95480.03;5112860;28;20200;-57
2022/09/08 11:43:20;;;;;;;0.40;0.40;;;;;;;35.88;29.28;95482.66;5112895;28;20199;-57
2022/09/08 11:46:06;;;;;;;0.50;0.50;;;;;;;35.78;30.06;95478.94;5110328;28;20226;-57
2022/09/08 11:49:11;;;;;;;0.40;0.40;;;;;;;36.04;30.44;95479.97;5112725;28;20828;-58
2022/09/08 11:52:21;;;;;;;0.40;0.40;;;;;;;35.85;31.02;95484.28;5112454;28;20199;-57
2022/09/08 11:55:40;;;;;;;0.80;0.80;;;;;;;34.15;32.06;95477.66;5112391;28;20205;-58
2022/09/08 11:58:21;;;;;;;1.27;0.63;;;;;;;35.79;32.44;95463.94;5112593;28;20206;-57
2022/09/08 12:01:02;;;;;;;0.40;0.40;;;;;;;36.03;29.97;95465.38;5112898;28;20197;-58
2022/09/08 12:03:58;;;;;;;0.53;0.40;;;;;;;35.96;29.70;95471.03;5112848;28;20194;-57
2022/09/08 12:06:45;;;;;;;0.70;0.70;;;;;;;35.63;30.42;95466.66;5112561;28;20255;-58
2022/09/08 12:09:38;;;;;;;0.90;0.90;;;;;;;34.87;31.41;95471.31;5112759;28;20606;-58
2022/09/08 12:12:20;;;;;;;0.70;0.70;;;;;;;33.54;33.49;95483.19;5112506;28;20195;-58
2022/09/08 12:15:03;;;;;;;0.57;0.57;;;;;;;33.96;34.07;95476.31;5112322;28;20205;-57
2022/09/08 12:17:47;;;;;;;0.70;0.70;;;;;;;33.86;32.91;95469.00;5112257;28;20199;-58
2022/09/08 12:20:27;;;;;;;0.80;0.80;;;;;;;33.04;34.34;95472.00;5112061;28;20198;-57
2022/09/08 12:23:26;;;;;;;4.50;2.80;;;;;;;33.33;33.95;95474.44;5112616;28;20190;-57
2022/09/08 12:26:15;;;;;;;0.63;0.63;;;;;;;34.07;34.04;95467.94;5109513;28;20959;-57
2022/09/08 12:29:04;;;;;;;0.60;0.60;;;;;;;33.26;34.80;95472.56;5112218;28;20863;-57
2022/09/08 12:32:17;;;;;;;0.50;0.50;;;;;;;32.88;35.61;95329.00;5112557;28;20795;-57
2022/09/08 12:35:17;;;;;;;1.03;1.00;;;;;;;33.20;35.90;95463.19;5112280;28;20447;-58
2022/09/08 12:37:55;;;;;;;0.50;0.50;;;;;;;32.99;35.55;95471.69;5112381;28;20897;-57
2022/09/08 12:40:55;;;;;;;1.03;1.03;;;;;;;33.66;34.98;95466.16;5112367;28;20749;-57
2022/09/08 12:43:24;;;;;;;0.80;0.80;;;;;;;33.82;34.17;95465.56;5112189;28;20428;-56
2022/09/08 12:46:32;;;;;;;2.90;0.70;;;;;;;33.41;34.51;95468.44;5112325;28;20507;-57
2022/09/08 12:49:35;;;;;;;0.43;0.40;;;;;;;33.41;35.79;95465.69;5105361;28;21292;-57
2022/09/08 12:52:08;;;;;;;0.80;0.80;;;;;;;33.66;35.12;95459.88;5077725;28;20452;-57
2022/09/08 12:54:56;;;;;;;1.17;0.77;;;;;;;33.71;35.72;95460.19;5112153;28;20437;-57